sensor_id;sensor_type;location;lat;lon;timestamp;temperature;humidity
19930;DHT22;10127;47.780;9.606;2023-08-30T00:00:15;13.80;99.90
19930;DHT22;10127;47.780;9.606;2023-08-30T00:02:43;13.70;99.90
19930;DHT22;10127;47.780;9.606;2023-08-30T00:05:10;13.70;99.90
19930;DHT22;10127;47.780;9.606;2023-08-30T00:07:35;13.60;99.90
19930;DHT22;10127;47.780;9.606;2023-08-30T00:10:01;13.70;99.90
19930;DHT22;10127;47.780;9.606;2023-08-30T00:12:28;13.60;99.90
19930;DHT22;10127;47.780;9.606;2023-08-30T00:14:53;13.60;99.90
19930;DHT22;10127;47.780;9.606;2023-08-30T00:17:19;13.60;99.90
19930;DHT22;10127;47.780;9.606;2023-08-30T00:19:51;13.60;99.90
19930;DHT22;10127;47.780;9.606;2023-08-30T00:22:18;13.60;99.90
19930;DHT22;10127;47.780;9.606;2023-08-30T00:24:44;13.70;99.90
19930;DHT22;10127;47.780;9.606;2023-08-30T00:27:10;13.70;99.90
19930;DHT22;10127;47.780;9.606;2023-08-30T00:29:37;13.60;99.90
19930;DHT22;10127;47.780;9.606;2023-08-30T00:32:09;13.70;99.90
19930;DHT22;10127;47.780;9.606;2023-08-30T00:34:35;13.70;99.90
19930;DHT22;10127;47.780;9.606;2023-08-30T00:37:00;13.60;99.90
19930;DHT22;10127;47.780;9.606;2023-08-30T00:39:26;13.60;99.90
19930;DHT22;10127;47.780;9.606;2023-08-30T00:41:52;13.60;99.90
19930;DHT22;10127;47.780;9.606;2023-08-30T00:44:17;13.60;99.90
19930;DHT22;10127;47.780;9.606;2023-08-30T00:46:49;13.60;99.90
19930;DHT22;10127;47.780;9.606;2023-08-30T00:49:15;13.60;99.90
19930;DHT22;10127;47.780;9.606;2023-08-30T00:51:41;13.70;99.90
19930;DHT22;10127;47.780;9.606;2023-08-30T00:54:07;13.70;99.90
19930;DHT22;10127;47.780;9.606;2023-08-30T00:56:33;13.70;99.90
19930;DHT22;10127;47.780;9.606;2023-08-30T00:58:59;13.60;99.90
19930;DHT22;10127;47.780;9.606;2023-08-30T01:01:26;13.60;99.90
19930;DHT22;10127;47.780;9.606;2023-08-30T01:03:51;13.60;99.90
19930;DHT22;10127;47.780;9.606;2023-08-30T01:06:17;13.60;99.90
19930;DHT22;10127;47.780;9.606;2023-08-30T01:08:43;13.70;99.90
19930;DHT22;10127;47.780;9.606;2023-08-30T01:11:39;13.70;99.90
19930;DHT22;10127;47.780;9.606;2023-08-30T01:14:13;13.70;99.90
19930;DHT22;10127;47.780;9.606;2023-08-30T01:16:41;13.70;99.90
19930;DHT22;10127;47.780;9.606;2023-08-30T01:22:14;13.70;99.90
19930;DHT22;10127;47.780;9.606;2023-08-30T01:24:48;13.60;99.90
19930;DHT22;10127;47.780;9.606;2023-08-30T01:27:20;13.60;99.90
19930;DHT22;10127;47.780;9.606;2023-08-30T01:29:46;13.60;99.90
19930;DHT22;10127;47.780;9.606;2023-08-30T01:32:13;13.60;99.90
19930;DHT22;10127;47.780;9.606;2023-08-30T01:34:40;13.70;99.90
19930;DHT22;10127;47.780;9.606;2023-08-30T01:37:08;13.70;99.90
19930;DHT22;10127;47.780;9.606;2023-08-30T01:39:37;13.60;99.90
19930;DHT22;10127;47.780;9.606;2023-08-30T01:42:04;13.60;99.90
19930;DHT22;10127;47.780;9.606;2023-08-30T01:44:30;13.60;99.90
19930;DHT22;10127;47.780;9.606;2023-08-30T01:46:57;13.50;99.90
19930;DHT22;10127;47.780;9.606;2023-08-30T01:49:25;13.50;99.90
19930;DHT22;10127;47.780;9.606;2023-08-30T01:51:51;13.50;99.90
19930;DHT22;10127;47.780;9.606;2023-08-30T01:54:18;13.50;99.90
19930;DHT22;10127;47.780;9.606;2023-08-30T01:56:45;13.50;99.90
19930;DHT22;10127;47.780;9.606;2023-08-30T01:59:12;13.50;99.90
19930;DHT22;10127;47.780;9.606;2023-08-30T02:01:37;13.50;99.90
19930;DHT22;10127;47.780;9.606;2023-08-30T02:04:03;13.50;99.90
19930;DHT22;10127;47.780;9.606;2023-08-30T02:09:25;13.60;99.90
19930;DHT22;10127;47.780;9.606;2023-08-30T02:11:54;13.60;99.90
19930;DHT22;10127;47.780;9.606;2023-08-30T02:14:20;13.50;99.90
19930;DHT22;10127;47.780;9.606;2023-08-30T02:16:47;13.50;99.90
19930;DHT22;10127;47.780;9.606;2023-08-30T02:19:14;13.50;99.90
19930;DHT22;10127;47.780;9.606;2023-08-30T02:21:46;13.50;99.90
19930;DHT22;10127;47.780;9.606;2023-08-30T02:24:12;13.40;99.90
19930;DHT22;10127;47.780;9.606;2023-08-30T02:26:37;13.40;99.90
19930;DHT22;10127;47.780;9.606;2023-08-30T02:29:03;13.40;99.90
19930;DHT22;10127;47.780;9.606;2023-08-30T02:31:29;13.40;99.90
19930;DHT22;10127;47.780;9.606;2023-08-30T02:33:55;13.30;99.90
19930;DHT22;10127;47.780;9.606;2023-08-30T02:36:20;13.30;99.90
19930;DHT22;10127;47.780;9.606;2023-08-30T02:38:46;13.30;99.90
19930;DHT22;10127;47.780;9.606;2023-08-30T02:41:11;13.40;99.90
19930;DHT22;10127;47.780;9.606;2023-08-30T02:43:37;13.30;99.90
19930;DHT22;10127;47.780;9.606;2023-08-30T02:46:03;13.30;99.90
19930;DHT22;10127;47.780;9.606;2023-08-30T02:48:31;13.30;99.90
19930;DHT22;10127;47.780;9.606;2023-08-30T02:50:57;13.30;99.90
19930;DHT22;10127;47.780;9.606;2023-08-30T02:53:23;13.30;99.90
19930;DHT22;10127;47.780;9.606;2023-08-30T02:55:48;13.30;99.90
19930;DHT22;10127;47.780;9.606;2023-08-30T02:58:14;13.20;99.90
19930;DHT22;10127;47.780;9.606;2023-08-30T03:00:40;13.20;99.90
19930;DHT22;10127;47.780;9.606;2023-08-30T03:03:05;13.20;99.90
19930;DHT22;10127;47.780;9.606;2023-08-30T03:05:31;13.20;99.90
19930;DHT22;10127;47.780;9.606;2023-08-30T03:07:56;13.20;99.90
19930;DHT22;10127;47.780;9.606;2023-08-30T03:10:22;13.10;99.90
19930;DHT22;10127;47.780;9.606;2023-08-30T03:12:48;13.20;99.90
19930;DHT22;10127;47.780;9.606;2023-08-30T03:15:13;13.10;99.90
19930;DHT22;10127;47.780;9.606;2023-08-30T03:17:39;13.20;99.90
19930;DHT22;10127;47.780;9.606;2023-08-30T03:20:05;13.30;99.90
19930;DHT22;10127;47.780;9.606;2023-08-30T03:22:31;13.30;99.90
19930;DHT22;10127;47.780;9.606;2023-08-30T03:24:57;13.30;99.90
19930;DHT22;10127;47.780;9.606;2023-08-30T03:27:23;13.30;99.90
19930;DHT22;10127;47.780;9.606;2023-08-30T03:29:48;13.30;99.90
19930;DHT22;10127;47.780;9.606;2023-08-30T03:32:16;13.30;99.90
19930;DHT22;10127;47.780;9.606;2023-08-30T03:34:45;13.30;99.90
19930;DHT22;10127;47.780;9.606;2023-08-30T03:37:13;13.30;99.90
19930;DHT22;10127;47.780;9.606;2023-08-30T03:39:39;13.20;99.90
19930;DHT22;10127;47.780;9.606;2023-08-30T03:42:05;13.20;99.90
19930;DHT22;10127;47.780;9.606;2023-08-30T03:44:31;13.20;99.90
19930;DHT22;10127;47.780;9.606;2023-08-30T03:46:56;13.30;99.90
19930;DHT22;10127;47.780;9.606;2023-08-30T03:49:22;13.30;99.90
19930;DHT22;10127;47.780;9.606;2023-08-30T03:51:48;13.30;99.90
19930;DHT22;10127;47.780;9.606;2023-08-30T03:54:13;13.40;99.90
19930;DHT22;10127;47.780;9.606;2023-08-30T03:56:45;13.30;99.90
19930;DHT22;10127;47.780;9.606;2023-08-30T03:59:11;13.40;99.90
19930;DHT22;10127;47.780;9.606;2023-08-30T04:01:37;13.40;99.90
19930;DHT22;10127;47.780;9.606;2023-08-30T04:04:03;13.40;99.90
19930;DHT22;10127;47.780;9.606;2023-08-30T04:06:28;13.50;99.90
19930;DHT22;10127;47.780;9.606;2023-08-30T04:08:54;13.60;99.90
19930;DHT22;10127;47.780;9.606;2023-08-30T04:11:20;13.60;99.90
19930;DHT22;10127;47.780;9.606;2023-08-30T04:13:45;13.60;99.90
19930;DHT22;10127;47.780;9.606;2023-08-30T04:16:11;13.60;99.90
19930;DHT22;10127;47.780;9.606;2023-08-30T04:18:36;13.60;99.90
19930;DHT22;10127;47.780;9.606;2023-08-30T04:21:02;13.60;99.90
19930;DHT22;10127;47.780;9.606;2023-08-30T04:23:29;13.50;99.90
19930;DHT22;10127;47.780;9.606;2023-08-30T04:25:55;13.60;99.90
19930;DHT22;10127;47.780;9.606;2023-08-30T04:28:20;13.50;99.90
19930;DHT22;10127;47.780;9.606;2023-08-30T04:30:46;13.50;99.90
19930;DHT22;10127;47.780;9.606;2023-08-30T04:33:12;13.60;99.90
19930;DHT22;10127;47.780;9.606;2023-08-30T04:35:37;13.60;99.90
19930;DHT22;10127;47.780;9.606;2023-08-30T04:38:03;13.60;99.90
19930;DHT22;10127;47.780;9.606;2023-08-30T04:40:29;13.60;99.90
19930;DHT22;10127;47.780;9.606;2023-08-30T04:42:56;13.70;99.90
19930;DHT22;10127;47.780;9.606;2023-08-30T04:45:22;13.80;99.90
19930;DHT22;10127;47.780;9.606;2023-08-30T04:47:47;13.80;99.90
19930;DHT22;10127;47.780;9.606;2023-08-30T04:50:14;13.80;99.90
19930;DHT22;10127;47.780;9.606;2023-08-30T04:52:40;13.80;99.90
19930;DHT22;10127;47.780;9.606;2023-08-30T04:55:06;13.90;99.90
19930;DHT22;10127;47.780;9.606;2023-08-30T04:57:31;13.90;99.90
19930;DHT22;10127;47.780;9.606;2023-08-30T04:59:57;13.80;99.90
19930;DHT22;10127;47.780;9.606;2023-08-30T05:02:23;13.80;99.90
19930;DHT22;10127;47.780;9.606;2023-08-30T05:04:48;13.80;99.90
19930;DHT22;10127;47.780;9.606;2023-08-30T05:07:14;13.60;99.90
19930;DHT22;10127;47.780;9.606;2023-08-30T05:09:39;13.60;99.90
19930;DHT22;10127;47.780;9.606;2023-08-30T05:12:06;13.60;99.90
19930;DHT22;10127;47.780;9.606;2023-08-30T05:14:32;13.60;99.90
19930;DHT22;10127;47.780;9.606;2023-08-30T05:16:58;13.60;99.90
19930;DHT22;10127;47.780;9.606;2023-08-30T05:19:23;13.60;99.90
19930;DHT22;10127;47.780;9.606;2023-08-30T05:21:49;13.60;99.90
19930;DHT22;10127;47.780;9.606;2023-08-30T05:24:20;13.60;99.90
19930;DHT22;10127;47.780;9.606;2023-08-30T05:26:46;13.60;99.90
19930;DHT22;10127;47.780;9.606;2023-08-30T05:29:13;13.60;99.90
19930;DHT22;10127;47.780;9.606;2023-08-30T05:31:39;13.70;99.90
19930;DHT22;10127;47.780;9.606;2023-08-30T05:34:04;13.80;99.90
19930;DHT22;10127;47.780;9.606;2023-08-30T05:36:30;14.00;99.90
19930;DHT22;10127;47.780;9.606;2023-08-30T05:38:56;14.00;99.90
19930;DHT22;10127;47.780;9.606;2023-08-30T05:41:21;14.10;99.90
19930;DHT22;10127;47.780;9.606;2023-08-30T05:43:47;14.10;99.90
19930;DHT22;10127;47.780;9.606;2023-08-30T05:46:13;14.30;99.90
19930;DHT22;10127;47.780;9.606;2023-08-30T05:48:41;14.40;99.90
19930;DHT22;10127;47.780;9.606;2023-08-30T05:51:07;14.50;99.90
19930;DHT22;10127;47.780;9.606;2023-08-30T05:53:32;14.60;99.90
19930;DHT22;10127;47.780;9.606;2023-08-30T05:55:58;14.60;99.90
19930;DHT22;10127;47.780;9.606;2023-08-30T05:58:24;14.60;99.90
19930;DHT22;10127;47.780;9.606;2023-08-30T06:00:49;14.70;99.90
19930;DHT22;10127;47.780;9.606;2023-08-30T06:03:15;14.70;99.90
19930;DHT22;10127;47.780;9.606;2023-08-30T06:05:42;14.70;99.90
19930;DHT22;10127;47.780;9.606;2023-08-30T06:08:08;14.70;99.90
19930;DHT22;10127;47.780;9.606;2023-08-30T06:10:35;14.50;99.90
19930;DHT22;10127;47.780;9.606;2023-08-30T06:13:01;14.50;99.90
19930;DHT22;10127;47.780;9.606;2023-08-30T06:15:28;14.50;99.90
19930;DHT22;10127;47.780;9.606;2023-08-30T06:17:53;14.50;99.90
19930;DHT22;10127;47.780;9.606;2023-08-30T06:20:19;14.50;99.90
19930;DHT22;10127;47.780;9.606;2023-08-30T06:22:45;14.70;99.90
19930;DHT22;10127;47.780;9.606;2023-08-30T06:25:10;14.90;99.90
19930;DHT22;10127;47.780;9.606;2023-08-30T06:27:42;15.00;99.90
19930;DHT22;10127;47.780;9.606;2023-08-30T06:30:10;15.10;99.90
19930;DHT22;10127;47.780;9.606;2023-08-30T06:32:36;15.00;99.90
19930;DHT22;10127;47.780;9.606;2023-08-30T06:35:01;15.10;99.90
19930;DHT22;10127;47.780;9.606;2023-08-30T06:37:28;15.10;99.90
19930;DHT22;10127;47.780;9.606;2023-08-30T06:39:53;15.00;99.90
19930;DHT22;10127;47.780;9.606;2023-08-30T06:42:19;15.00;99.90
19930;DHT22;10127;47.780;9.606;2023-08-30T06:44:44;15.00;99.90
19930;DHT22;10127;47.780;9.606;2023-08-30T06:47:10;15.10;99.90
19930;DHT22;10127;47.780;9.606;2023-08-30T06:49:36;15.30;99.90
19930;DHT22;10127;47.780;9.606;2023-08-30T06:52:01;15.30;99.90
19930;DHT22;10127;47.780;9.606;2023-08-30T06:54:29;15.30;99.90
19930;DHT22;10127;47.780;9.606;2023-08-30T06:57:00;15.20;99.90
19930;DHT22;10127;47.780;9.606;2023-08-30T06:59:26;15.40;99.90
19930;DHT22;10127;47.780;9.606;2023-08-30T07:01:52;15.40;99.90
19930;DHT22;10127;47.780;9.606;2023-08-30T07:04:18;15.40;99.90
19930;DHT22;10127;47.780;9.606;2023-08-30T07:06:43;15.40;99.90
19930;DHT22;10127;47.780;9.606;2023-08-30T07:09:09;15.40;99.90
19930;DHT22;10127;47.780;9.606;2023-08-30T07:11:37;15.40;99.90
19930;DHT22;10127;47.780;9.606;2023-08-30T07:14:02;15.30;99.90
19930;DHT22;10127;47.780;9.606;2023-08-30T07:16:28;15.30;99.90
19930;DHT22;10127;47.780;9.606;2023-08-30T07:18:55;15.40;99.90
19930;DHT22;10127;47.780;9.606;2023-08-30T07:21:21;15.40;99.90
19930;DHT22;10127;47.780;9.606;2023-08-30T07:23:46;15.60;99.90
19930;DHT22;10127;47.780;9.606;2023-08-30T07:26:12;15.60;99.90
19930;DHT22;10127;47.780;9.606;2023-08-30T07:28:37;15.60;99.90
19930;DHT22;10127;47.780;9.606;2023-08-30T07:31:04;15.60;99.90
19930;DHT22;10127;47.780;9.606;2023-08-30T07:33:29;15.60;99.90
19930;DHT22;10127;47.780;9.606;2023-08-30T07:35:55;15.70;99.90
19930;DHT22;10127;47.780;9.606;2023-08-30T07:38:20;15.80;99.90
19930;DHT22;10127;47.780;9.606;2023-08-30T07:40:46;16.10;99.90
19930;DHT22;10127;47.780;9.606;2023-08-30T07:43:12;16.10;99.90
19930;DHT22;10127;47.780;9.606;2023-08-30T07:45:37;16.10;99.90
19930;DHT22;10127;47.780;9.606;2023-08-30T07:48:03;16.40;99.90
19930;DHT22;10127;47.780;9.606;2023-08-30T07:50:29;16.50;99.90
19930;DHT22;10127;47.780;9.606;2023-08-30T07:52:54;16.50;99.90
19930;DHT22;10127;47.780;9.606;2023-08-30T07:55:20;16.60;99.90
19930;DHT22;10127;47.780;9.606;2023-08-30T07:57:45;16.60;99.90
19930;DHT22;10127;47.780;9.606;2023-08-30T08:00:12;16.60;99.90
19930;DHT22;10127;47.780;9.606;2023-08-30T08:02:38;16.70;99.90
19930;DHT22;10127;47.780;9.606;2023-08-30T08:05:05;16.90;99.90
19930;DHT22;10127;47.780;9.606;2023-08-30T08:07:31;16.90;99.90
19930;DHT22;10127;47.780;9.606;2023-08-30T08:09:57;16.90;99.90
19930;DHT22;10127;47.780;9.606;2023-08-30T08:12:22;16.80;99.90
19930;DHT22;10127;47.780;9.606;2023-08-30T08:14:48;16.80;99.90
19930;DHT22;10127;47.780;9.606;2023-08-30T08:17:15;17.00;99.90
19930;DHT22;10127;47.780;9.606;2023-08-30T08:19:41;17.40;99.90
19930;DHT22;10127;47.780;9.606;2023-08-30T08:22:08;17.30;99.90
19930;DHT22;10127;47.780;9.606;2023-08-30T08:24:33;17.00;99.90
19930;DHT22;10127;47.780;9.606;2023-08-30T08:26:59;16.80;99.90
19930;DHT22;10127;47.780;9.606;2023-08-30T08:29:27;16.90;99.90
19930;DHT22;10127;47.780;9.606;2023-08-30T08:31:53;17.00;99.90
19930;DHT22;10127;47.780;9.606;2023-08-30T08:34:19;17.30;99.90
19930;DHT22;10127;47.780;9.606;2023-08-30T08:36:45;17.40;99.90
19930;DHT22;10127;47.780;9.606;2023-08-30T08:39:10;17.50;99.90
19930;DHT22;10127;47.780;9.606;2023-08-30T08:44:04;17.40;99.90
19930;DHT22;10127;47.780;9.606;2023-08-30T08:46:31;17.30;99.90
19930;DHT22;10127;47.780;9.606;2023-08-30T08:48:59;17.30;99.90
19930;DHT22;10127;47.780;9.606;2023-08-30T08:51:27;17.50;99.90
19930;DHT22;10127;47.780;9.606;2023-08-30T08:53:56;17.80;99.90
19930;DHT22;10127;47.780;9.606;2023-08-30T08:56:24;17.90;99.90
19930;DHT22;10127;47.780;9.606;2023-08-30T08:58:49;17.80;99.90
19930;DHT22;10127;47.780;9.606;2023-08-30T09:01:15;17.90;99.90
19930;DHT22;10127;47.780;9.606;2023-08-30T09:03:41;18.00;99.90
19930;DHT22;10127;47.780;9.606;2023-08-30T09:06:07;18.10;99.90
19930;DHT22;10127;47.780;9.606;2023-08-30T09:08:33;18.20;99.90
19930;DHT22;10127;47.780;9.606;2023-08-30T09:10:59;18.30;99.90
19930;DHT22;10127;47.780;9.606;2023-08-30T09:13:24;18.20;99.90
19930;DHT22;10127;47.780;9.606;2023-08-30T09:15:51;18.10;99.90
19930;DHT22;10127;47.780;9.606;2023-08-30T09:18:17;18.10;99.90
19930;DHT22;10127;47.780;9.606;2023-08-30T09:20:43;18.00;99.90
19930;DHT22;10127;47.780;9.606;2023-08-30T09:23:21;18.00;99.90
19930;DHT22;10127;47.780;9.606;2023-08-30T09:25:56;18.10;99.90
19930;DHT22;10127;47.780;9.606;2023-08-30T09:28:22;18.00;99.90
19930;DHT22;10127;47.780;9.606;2023-08-30T09:30:53;18.10;99.90
19930;DHT22;10127;47.780;9.606;2023-08-30T09:33:22;18.20;99.90
19930;DHT22;10127;47.780;9.606;2023-08-30T09:35:48;18.20;99.90
19930;DHT22;10127;47.780;9.606;2023-08-30T09:38:20;18.30;99.90
19930;DHT22;10127;47.780;9.606;2023-08-30T09:41:02;18.40;99.90
19930;DHT22;10127;47.780;9.606;2023-08-30T09:43:28;18.30;99.90
19930;DHT22;10127;47.780;9.606;2023-08-30T09:45:53;18.50;99.90
19930;DHT22;10127;47.780;9.606;2023-08-30T09:48:22;18.80;99.90
19930;DHT22;10127;47.780;9.606;2023-08-30T09:50:53;19.10;99.90
19930;DHT22;10127;47.780;9.606;2023-08-30T09:53:21;19.10;99.90
19930;DHT22;10127;47.780;9.606;2023-08-30T09:55:51;19.10;99.90
19930;DHT22;10127;47.780;9.606;2023-08-30T09:58:18;19.00;99.90
19930;DHT22;10127;47.780;9.606;2023-08-30T10:00:44;19.10;99.90
19930;DHT22;10127;47.780;9.606;2023-08-30T10:03:10;19.30;99.90
19930;DHT22;10127;47.780;9.606;2023-08-30T10:05:36;19.30;99.90
19930;DHT22;10127;47.780;9.606;2023-08-30T10:08:04;19.40;99.90
19930;DHT22;10127;47.780;9.606;2023-08-30T10:10:32;19.50;99.90
19930;DHT22;10127;47.780;9.606;2023-08-30T10:12:58;19.40;99.90
19930;DHT22;10127;47.780;9.606;2023-08-30T10:15:27;19.30;99.90
19930;DHT22;10127;47.780;9.606;2023-08-30T10:17:58;19.10;99.90
19930;DHT22;10127;47.780;9.606;2023-08-30T10:20:24;18.90;99.90
19930;DHT22;10127;47.780;9.606;2023-08-30T10:22:52;19.00;99.90
19930;DHT22;10127;47.780;9.606;2023-08-30T10:25:21;19.00;99.90
19930;DHT22;10127;47.780;9.606;2023-08-30T10:27:49;19.10;99.90
19930;DHT22;10127;47.780;9.606;2023-08-30T10:30:16;19.00;99.90
19930;DHT22;10127;47.780;9.606;2023-08-30T10:32:44;19.00;99.90
19930;DHT22;10127;47.780;9.606;2023-08-30T10:35:15;19.10;99.90
19930;DHT22;10127;47.780;9.606;2023-08-30T10:37:42;19.10;99.90
19930;DHT22;10127;47.780;9.606;2023-08-30T10:40:08;19.10;99.90
19930;DHT22;10127;47.780;9.606;2023-08-30T10:42:35;19.10;99.90
19930;DHT22;10127;47.780;9.606;2023-08-30T10:45:07;19.00;99.90
19930;DHT22;10127;47.780;9.606;2023-08-30T10:47:37;19.10;99.90
19930;DHT22;10127;47.780;9.606;2023-08-30T10:50:11;19.20;99.90
19930;DHT22;10127;47.780;9.606;2023-08-30T10:52:37;19.20;99.90
19930;DHT22;10127;47.780;9.606;2023-08-30T10:55:15;19.20;99.90
19930;DHT22;10127;47.780;9.606;2023-08-30T10:57:43;19.00;99.90
19930;DHT22;10127;47.780;9.606;2023-08-30T11:02:36;18.90;99.90
19930;DHT22;10127;47.780;9.606;2023-08-30T11:05:04;19.00;99.90
19930;DHT22;10127;47.780;9.606;2023-08-30T11:07:31;18.80;99.90
19930;DHT22;10127;47.780;9.606;2023-08-30T11:09:57;18.90;99.90
19930;DHT22;10127;47.780;9.606;2023-08-30T11:12:22;18.70;99.90
19930;DHT22;10127;47.780;9.606;2023-08-30T11:14:49;18.80;99.90
19930;DHT22;10127;47.780;9.606;2023-08-30T11:17:18;18.80;99.90
19930;DHT22;10127;47.780;9.606;2023-08-30T11:19:45;18.80;99.90
19930;DHT22;10127;47.780;9.606;2023-08-30T11:22:12;18.80;99.90
19930;DHT22;10127;47.780;9.606;2023-08-30T11:24:38;18.80;99.90
19930;DHT22;10127;47.780;9.606;2023-08-30T11:27:04;18.80;99.90
19930;DHT22;10127;47.780;9.606;2023-08-30T11:29:29;18.80;99.90
19930;DHT22;10127;47.780;9.606;2023-08-30T11:31:55;19.10;99.90
19930;DHT22;10127;47.780;9.606;2023-08-30T11:34:21;19.30;99.90
19930;DHT22;10127;47.780;9.606;2023-08-30T11:36:50;19.60;99.90
19930;DHT22;10127;47.780;9.606;2023-08-30T11:39:19;19.80;99.90
19930;DHT22;10127;47.780;9.606;2023-08-30T11:41:47;19.80;99.90
19930;DHT22;10127;47.780;9.606;2023-08-30T11:44:13;19.80;99.90
19930;DHT22;10127;47.780;9.606;2023-08-30T11:46:39;19.90;99.90
19930;DHT22;10127;47.780;9.606;2023-08-30T11:49:05;20.00;99.50
19930;DHT22;10127;47.780;9.606;2023-08-30T11:51:31;19.70;98.60
19930;DHT22;10127;47.780;9.606;2023-08-30T11:53:59;19.60;99.50
19930;DHT22;10127;47.780;9.606;2023-08-30T11:56:27;19.70;99.40
19930;DHT22;10127;47.780;9.606;2023-08-30T11:58:54;19.70;99.40
19930;DHT22;10127;47.780;9.606;2023-08-30T12:01:20;19.50;99.40
19930;DHT22;10127;47.780;9.606;2023-08-30T12:03:45;19.40;98.80
19930;DHT22;10127;47.780;9.606;2023-08-30T12:06:16;19.30;99.00
19930;DHT22;10127;47.780;9.606;2023-08-30T12:08:42;19.40;99.60
19930;DHT22;10127;47.780;9.606;2023-08-30T12:11:18;19.60;99.50
19930;DHT22;10127;47.780;9.606;2023-08-30T12:13:44;19.90;99.60
19930;DHT22;10127;47.780;9.606;2023-08-30T12:16:15;20.00;98.70
19930;DHT22;10127;47.780;9.606;2023-08-30T12:18:42;20.10;97.90
19930;DHT22;10127;47.780;9.606;2023-08-30T12:21:08;20.20;96.80
19930;DHT22;10127;47.780;9.606;2023-08-30T12:23:33;20.40;97.30
19930;DHT22;10127;47.780;9.606;2023-08-30T12:26:04;20.50;96.30
19930;DHT22;10127;47.780;9.606;2023-08-30T12:28:31;20.50;96.80
19930;DHT22;10127;47.780;9.606;2023-08-30T12:30:57;20.70;96.50
19930;DHT22;10127;47.780;9.606;2023-08-30T12:33:24;20.70;96.60
19930;DHT22;10127;47.780;9.606;2023-08-30T12:35:54;20.70;96.70
19930;DHT22;10127;47.780;9.606;2023-08-30T12:38:20;20.70;96.70
19930;DHT22;10127;47.780;9.606;2023-08-30T12:40:50;20.50;96.60
19930;DHT22;10127;47.780;9.606;2023-08-30T12:43:17;20.50;96.90
19930;DHT22;10127;47.780;9.606;2023-08-30T12:45:43;20.60;96.70
19930;DHT22;10127;47.780;9.606;2023-08-30T12:48:11;20.60;96.80
19930;DHT22;10127;47.780;9.606;2023-08-30T12:50:37;20.70;96.10
19930;DHT22;10127;47.780;9.606;2023-08-30T12:53:06;20.70;95.40
19930;DHT22;10127;47.780;9.606;2023-08-30T12:55:33;20.70;95.90
19930;DHT22;10127;47.780;9.606;2023-08-30T12:58:00;20.70;95.80
19930;DHT22;10127;47.780;9.606;2023-08-30T13:00:26;20.70;96.10
19930;DHT22;10127;47.780;9.606;2023-08-30T13:02:52;20.70;95.40
19930;DHT22;10127;47.780;9.606;2023-08-30T13:05:19;20.70;95.40
19930;DHT22;10127;47.780;9.606;2023-08-30T13:07:45;20.70;94.90
19930;DHT22;10127;47.780;9.606;2023-08-30T13:10:10;20.50;95.20
19930;DHT22;10127;47.780;9.606;2023-08-30T13:12:36;20.60;95.50
19930;DHT22;10127;47.780;9.606;2023-08-30T13:15:03;20.80;94.20
19930;DHT22;10127;47.780;9.606;2023-08-30T13:17:29;20.90;94.10
19930;DHT22;10127;47.780;9.606;2023-08-30T13:19:55;20.90;93.60
19930;DHT22;10127;47.780;9.606;2023-08-30T13:22:22;20.70;92.80
19930;DHT22;10127;47.780;9.606;2023-08-30T13:24:48;20.60;93.40
19930;DHT22;10127;47.780;9.606;2023-08-30T13:27:13;20.80;93.40
19930;DHT22;10127;47.780;9.606;2023-08-30T13:29:39;20.90;92.20
19930;DHT22;10127;47.780;9.606;2023-08-30T13:32:05;21.00;91.90
19930;DHT22;10127;47.780;9.606;2023-08-30T13:34:31;21.10;92.00
19930;DHT22;10127;47.780;9.606;2023-08-30T13:36:56;21.00;92.60
19930;DHT22;10127;47.780;9.606;2023-08-30T13:39:22;21.10;92.70
19930;DHT22;10127;47.780;9.606;2023-08-30T13:41:48;21.20;92.10
19930;DHT22;10127;47.780;9.606;2023-08-30T13:44:14;21.30;92.60
19930;DHT22;10127;47.780;9.606;2023-08-30T13:46:40;21.30;92.10
19930;DHT22;10127;47.780;9.606;2023-08-30T13:49:06;21.50;91.70
19930;DHT22;10127;47.780;9.606;2023-08-30T13:51:32;21.40;91.20
19930;DHT22;10127;47.780;9.606;2023-08-30T13:53:58;21.30;91.90
19930;DHT22;10127;47.780;9.606;2023-08-30T13:56:24;21.10;92.80
19930;DHT22;10127;47.780;9.606;2023-08-30T13:58:51;21.10;93.30
19930;DHT22;10127;47.780;9.606;2023-08-30T14:01:16;21.20;92.70
19930;DHT22;10127;47.780;9.606;2023-08-30T14:03:43;21.20;93.00
19930;DHT22;10127;47.780;9.606;2023-08-30T14:06:08;21.00;92.80
19930;DHT22;10127;47.780;9.606;2023-08-30T14:08:35;20.80;93.20
19930;DHT22;10127;47.780;9.606;2023-08-30T14:11:00;20.80;93.00
19930;DHT22;10127;47.780;9.606;2023-08-30T14:13:26;20.80;93.70
19930;DHT22;10127;47.780;9.606;2023-08-30T14:15:53;20.90;94.20
19930;DHT22;10127;47.780;9.606;2023-08-30T14:18:19;21.10;92.40
19930;DHT22;10127;47.780;9.606;2023-08-30T14:20:45;21.30;91.70
19930;DHT22;10127;47.780;9.606;2023-08-30T14:23:10;21.20;91.70
19930;DHT22;10127;47.780;9.606;2023-08-30T14:25:37;21.40;91.10
19930;DHT22;10127;47.780;9.606;2023-08-30T14:28:03;21.60;91.30
19930;DHT22;10127;47.780;9.606;2023-08-30T14:30:29;21.50;91.50
19930;DHT22;10127;47.780;9.606;2023-08-30T14:32:55;21.40;92.00
19930;DHT22;10127;47.780;9.606;2023-08-30T14:35:20;21.50;92.00
19930;DHT22;10127;47.780;9.606;2023-08-30T14:37:47;21.60;92.00
19930;DHT22;10127;47.780;9.606;2023-08-30T14:40:13;21.80;91.70
19930;DHT22;10127;47.780;9.606;2023-08-30T14:42:39;22.10;91.40
19930;DHT22;10127;47.780;9.606;2023-08-30T14:45:06;22.10;91.20
19930;DHT22;10127;47.780;9.606;2023-08-30T14:47:33;21.80;91.70
19930;DHT22;10127;47.780;9.606;2023-08-30T14:49:59;22.00;91.40
19930;DHT22;10127;47.780;9.606;2023-08-30T14:52:28;22.20;91.60
19930;DHT22;10127;47.780;9.606;2023-08-30T14:54:54;22.20;91.60
19930;DHT22;10127;47.780;9.606;2023-08-30T14:57:19;21.90;91.70
19930;DHT22;10127;47.780;9.606;2023-08-30T14:59:47;21.60;91.40
19930;DHT22;10127;47.780;9.606;2023-08-30T15:02:12;21.50;92.00
19930;DHT22;10127;47.780;9.606;2023-08-30T15:04:39;21.60;92.30
19930;DHT22;10127;47.780;9.606;2023-08-30T15:07:04;21.70;91.80
19930;DHT22;10127;47.780;9.606;2023-08-30T15:09:30;21.80;92.60
19930;DHT22;10127;47.780;9.606;2023-08-30T15:11:56;21.90;92.00
19930;DHT22;10127;47.780;9.606;2023-08-30T15:14:24;21.90;92.10
19930;DHT22;10127;47.780;9.606;2023-08-30T15:16:49;21.90;91.70
19930;DHT22;10127;47.780;9.606;2023-08-30T15:19:15;21.90;92.00
19930;DHT22;10127;47.780;9.606;2023-08-30T15:21:40;21.80;92.30
19930;DHT22;10127;47.780;9.606;2023-08-30T15:24:06;21.90;91.50
19930;DHT22;10127;47.780;9.606;2023-08-30T15:26:32;21.90;92.00
19930;DHT22;10127;47.780;9.606;2023-08-30T15:28:57;21.90;92.50
19930;DHT22;10127;47.780;9.606;2023-08-30T15:31:23;21.80;92.20
19930;DHT22;10127;47.780;9.606;2023-08-30T15:33:48;21.70;92.80
19930;DHT22;10127;47.780;9.606;2023-08-30T15:36:14;21.70;93.20